EDT,Max TemperatureF,Mean TemperatureF,Min TemperatureF,Max Dew PointF,MeanDew PointF,Min DewpointF,Max Humidity, Mean Humidity, Min Humidity, Max Sea Level PressureIn, Mean Sea Level PressureIn, Min Sea Level PressureIn, Max VisibilityMiles, Mean VisibilityMiles, Min VisibilityMiles, Max Wind SpeedMPH, Mean Wind SpeedMPH, Max Gust SpeedMPH,PrecipitationIn, CloudCover, Events, WindDirDegrees
2012-10-1,88,79,72,74,72,70,97,84,59,29.78,29.73,29.69,,,,20,8,24,0.05,,,147
2012-10-2,84,76,71,73,69,63,94,79,56,30.01,29.85,29.73,,,,21,8,30,0.62,,,205
2012-10-3,75,69,66,67,66,65,96,89,76,30.17,30.09,30.00,,,,9,2,,1.23,,,32
2012-10-4,,,,,,,,,,30.22,30.17,30.12,,,,5,2,,0.44,,,28
2012-10-5,84,78,72,73,71,68,87,78,67,30.13,30.07,29.99,,,,12,2,,0.01,,,31
2012-10-6,88,78,69,72,70,68,97,84,57,30.01,29.95,29.88,,,,4,0,,0.02,,,31
2012-10-7,90,79,69,73,69,66,97,76,48,30.00,29.96,29.91,,,,6,3,,0.00,,,356
2012-10-8,78,72,68,69,67,64,90,83,76,30.05,30.00,29.95,,,,6,2,,0.12,,,6
2012-10-9,75,68,62,65,62,60,93,87,71,30.10,30.06,30.03,,,,8,5,,0.00,,,38
2012-10-10,82,70,60,65,62,59,100,83,52,30.16,30.10,30.05,,,,9,2,,0.00,,,355
2012-10-11,82,70,57,62,59,56,97,76,44,30.22,30.17,30.13,,,,8,2,,0.00,,,37
2012-10-12,84,69,54,65,60,53,100,76,46,30.25,30.19,30.14,,,,5,2,,0.00,,,56
2012-10-13,86,74,63,65,62,60,93,70,44,30.25,30.19,30.15,,,,13,4,20,0.01,,,59
2012-10-14,88,76,64,68,65,62,93,76,42,30.18,30.10,30.03,,,,7,4,,0.02,,,33
2012-10-15,86,75,66,70,67,65,97,82,53,30.00,29.92,29.83,,,,10,2,,0.00,,,260
2012-10-16,79,68,57,63,52,45,90,64,31,29.95,29.89,29.86,,,,12,4,18,0.00,,,6
2012-10-17,77,67,59,62,58,53,97,77,60,29.94,29.89,29.83,,,,5,1,,0.00,,,67
2012-10-18,82,70,57,69,63,56,100,81,52,29.87,29.84,29.80,,,,14,3,20,0.13,,,187
2012-10-19,81,69,57,70,58,47,93,69,34,29.90,29.85,29.81,,,,9,5,,0.07,,,316
2012-10-20,79,63,48,52,48,40,97,67,26,29.99,29.93,29.89,,,,12,2,,0.00,,,321
2012-10-21,81,62,46,53,49,44,93,66,35,30.11,30.05,29.99,,,,9,2,17,0.00,,,26
2012-10-22,82,66,51,61,56,50,96,71,45,30.17,30.11,30.06,,,,12,3,17,0.01,,,50
2012-10-23,84,70,57,63,59,55,93,72,47,30.13,30.08,30.03,,,,9,4,,0.03,,,49
2012-10-24,84,73,62,64,61,59,96,72,43,30.11,30.04,29.98,,,,10,3,16,0.01,,,43
2012-10-25,86,74,64,67,65,62,97,77,53,30.01,29.95,29.89,,,,12,5,17,0.03,,,32
2012-10-26,84,75,66,65,62,56,93,72,43,29.91,29.85,29.78,,,,16,7,26,0.02,,,9
2012-10-27,77,69,61,61,57,52,83,70,52,29.77,29.73,29.68,,,,13,8,25,0.00,,,323
2012-10-28,62,55,48,55,49,43,92,78,69,29.85,29.79,29.75,,,,14,9,21,0.00,,,307
2012-10-29,64,54,42,43,35,30,82,54,28,29.92,29.85,29.78,,,,17,10,24,0.00,,,304
2012-10-30,64,50,37,36,30,23,76,49,21,29.96,29.88,29.83,,,,18,9,28,0.00,,,279
2012-10-31,71,54,37,51,41,34,89,58,30,30.04,29.98,29.93,,,,17,6,22,0.00,,,256